createdAt,value
2023-01-30T00:00:04.295Z,1.89
2023-01-30T00:01:04.439Z,2.59
2023-01-30T00:02:04.139Z,2.59
2023-01-30T00:03:04.529Z,3.64
2023-01-30T00:04:04.255Z,1.55
2023-01-30T00:05:04.047Z,1.73
2023-01-30T00:06:04.215Z,1.51
2023-01-30T00:07:03.791Z,2.71
2023-01-30T00:08:03.832Z,2.44
2023-01-30T00:09:04.216Z,2.35
2023-01-30T00:10:04.414Z,2.93
2023-01-30T00:11:03.656Z,3.27
2023-01-30T00:12:04.116Z,2.31
2023-01-30T00:13:04.417Z,2.52
2023-01-30T00:14:03.848Z,2.15
2023-01-30T00:15:04.127Z,2.06
2023-01-30T00:16:04.012Z,3.22
2023-01-30T00:17:04.349Z,2.94
2023-01-30T00:18:04.020Z,2.22
2023-01-30T00:19:03.430Z,2.48
2023-01-30T00:20:04.190Z,2.31
2023-01-30T00:21:03.922Z,3.04
2023-01-30T00:22:03.780Z,3.67
2023-01-30T00:23:04.343Z,2.95
2023-01-30T00:24:03.942Z,2.41
2023-01-30T00:25:04.912Z,1.44
2023-01-30T00:26:03.944Z,2.32
2023-01-30T00:27:04.465Z,1.75
2023-01-30T00:28:04.125Z,1.62
2023-01-30T00:29:03.773Z,1.81
2023-01-30T00:30:05.795Z,3.03
2023-01-30T00:31:03.724Z,1.31
2023-01-30T00:32:04.021Z,2.71
2023-01-30T00:33:04.324Z,3.59
2023-01-30T00:34:04.407Z,2.18
2023-01-30T00:35:03.999Z,2.22
2023-01-30T00:36:04.316Z,1.72
2023-01-30T00:37:10.545Z,1.98
2023-01-30T00:38:04.206Z,2.44
2023-01-30T00:39:03.686Z,3.04
2023-01-30T00:40:04.108Z,1.8
2023-01-30T00:41:03.692Z,2.68
2023-01-30T00:42:04.161Z,2.33
2023-01-30T00:43:03.665Z,1.52
2023-01-30T00:44:04.100Z,1.98
2023-01-30T00:45:03.650Z,2.58
2023-01-30T00:46:03.821Z,2.08
2023-01-30T00:47:04.423Z,2.2
2023-01-30T00:48:04.083Z,1.77
2023-01-30T00:49:04.569Z,1.89
2023-01-30T00:50:04.122Z,2.15
2023-01-30T00:51:04.765Z,2.06
2023-01-30T00:52:04.170Z,2.06
2023-01-30T00:53:03.686Z,1.88
2023-01-30T00:54:04.278Z,1.89
2023-01-30T00:55:03.796Z,3.95
2023-01-30T00:56:04.336Z,5.41
2023-01-30T00:57:04.478Z,3.63
2023-01-30T00:58:03.892Z,4.09
2023-01-30T00:59:03.621Z,4.65
2023-01-30T01:00:04.176Z,3.04
2023-01-30T01:01:04.253Z,4.74
2023-01-30T01:02:03.776Z,3.81
2023-01-30T01:03:04.184Z,4.25
2023-01-30T01:04:03.919Z,3.97
2023-01-30T01:05:04.220Z,3.26
2023-01-30T01:06:04.476Z,3.72
2023-01-30T01:07:04.057Z,3.42
2023-01-30T01:08:03.579Z,3.06
2023-01-30T01:09:04.073Z,4.34
2023-01-30T01:10:04.477Z,2.83
2023-01-30T01:11:04.185Z,3.51
2023-01-30T01:12:04.268Z,3.21
2023-01-30T01:13:03.849Z,3.41
2023-01-30T01:14:03.955Z,4.15
2023-01-30T01:15:04.598Z,3.14
2023-01-30T01:16:03.937Z,2.77
2023-01-30T01:17:04.169Z,3.9
2023-01-30T01:18:03.689Z,2.84
2023-01-30T01:19:03.873Z,3.23
2023-01-30T01:20:04.547Z,3.68
2023-01-30T01:21:03.968Z,3.88
2023-01-30T01:22:04.491Z,2.74
2023-01-30T01:23:04.063Z,4.18
2023-01-30T01:24:04.203Z,4.22
2023-01-30T01:25:03.592Z,2.35
2023-01-30T01:26:04.488Z,3.92
2023-01-30T01:27:03.870Z,3.22
2023-01-30T01:28:03.572Z,3.02
2023-01-30T01:29:04.159Z,3.19
2023-01-30T01:30:04.803Z,4.61
2023-01-30T01:31:04.690Z,2.89
2023-01-30T01:32:04.321Z,3.71
2023-01-30T01:33:03.589Z,3.46
2023-01-30T01:34:04.657Z,3.36
2023-01-30T01:35:04.012Z,4.05
2023-01-30T01:36:06.694Z,3.95
2023-01-30T01:37:04.293Z,2.75
2023-01-30T01:38:04.607Z,3.76
2023-01-30T01:39:03.922Z,3.26
2023-01-30T01:40:03.714Z,4.87
2023-01-30T01:41:04.203Z,3.39
2023-01-30T01:42:03.845Z,3.39
2023-01-30T01:43:04.292Z,2.47
2023-01-30T01:44:03.701Z,3.94
2023-01-30T01:45:04.176Z,3.57
2023-01-30T01:46:04.617Z,2.86
2023-01-30T01:47:04.206Z,3.86
2023-01-30T01:48:03.868Z,2.79
2023-01-30T01:49:03.832Z,2.67
2023-01-30T01:50:04.462Z,3.88
2023-01-30T01:51:03.697Z,3.48
2023-01-30T01:52:04.590Z,3.93
2023-01-30T01:53:04.097Z,4.23
2023-01-30T01:54:03.681Z,3.28
2023-01-30T01:55:04.154Z,3.67
2023-01-30T01:56:03.744Z,4
2023-01-30T01:57:03.917Z,5.03
2023-01-30T01:58:04.269Z,4.24
2023-01-30T01:59:03.721Z,4.57
2023-01-30T02:00:04.412Z,3.35
2023-01-30T02:01:04.560Z,3.3
2023-01-30T02:02:03.973Z,3.65
2023-01-30T02:03:04.287Z,3.94
2023-01-30T02:04:03.841Z,3.41
2023-01-30T02:05:04.429Z,2.69
2023-01-30T02:06:03.701Z,2.95
2023-01-30T02:07:04.430Z,4.24
2023-01-30T02:08:03.774Z,4.2
2023-01-30T02:09:04.463Z,4.59
2023-01-30T02:10:04.109Z,3.83
2023-01-30T02:11:03.509Z,3.63
2023-01-30T02:12:03.934Z,4.16
2023-01-30T02:13:03.551Z,2.91
2023-01-30T02:14:04.092Z,3.32
2023-01-30T02:15:03.885Z,2.48
2023-01-30T02:16:04.482Z,4.76
2023-01-30T02:17:03.861Z,2.65
2023-01-30T02:18:04.242Z,3.98
2023-01-30T02:19:03.910Z,4.2
2023-01-30T02:20:04.398Z,5.52
2023-01-30T02:21:03.884Z,4.01
2023-01-30T02:22:04.200Z,2.83
2023-01-30T02:23:03.856Z,4.31
2023-01-30T02:24:04.073Z,3.73
2023-01-30T02:25:03.725Z,3.32
2023-01-30T02:26:04.079Z,4.4
2023-01-30T02:27:03.895Z,3.04
2023-01-30T02:28:04.213Z,4.48
2023-01-30T02:29:03.656Z,4.29
2023-01-30T02:30:04.057Z,3.88
2023-01-30T02:31:04.088Z,3.42
2023-01-30T02:32:04.329Z,4.04
2023-01-30T02:33:03.780Z,4.04
2023-01-30T02:34:04.282Z,4.34
2023-01-30T02:35:03.731Z,4.15
2023-01-30T02:36:04.059Z,4.85
2023-01-30T02:37:03.761Z,2.94
2023-01-30T02:38:04.261Z,3.35
2023-01-30T02:39:04.032Z,4.43
2023-01-30T02:40:04.456Z,4.38
2023-01-30T02:41:04.188Z,3.48
2023-01-30T02:42:03.769Z,4.32
2023-01-30T02:43:03.935Z,3.46
2023-01-30T02:44:03.625Z,3.68
2023-01-30T02:45:04.148Z,3.34
2023-01-30T02:46:04.517Z,3.87
2023-01-30T02:47:03.931Z,3.05
2023-01-30T02:48:04.578Z,4.95
2023-01-30T02:49:03.799Z,5.04
2023-01-30T02:50:03.906Z,3.52
2023-01-30T02:51:04.037Z,3.14
2023-01-30T02:52:04.455Z,2.71
2023-01-30T02:53:04.178Z,3.67
2023-01-30T02:54:03.643Z,3.39
2023-01-30T02:55:03.895Z,2.89
2023-01-30T02:56:04.504Z,4.5
2023-01-30T02:57:03.976Z,3.81
2023-01-30T02:58:04.545Z,5.19
2023-01-30T02:59:04.071Z,6.22
2023-01-30T03:00:04.187Z,3.19
2023-01-30T03:01:04.475Z,3.04
2023-01-30T03:02:04.066Z,3.16
2023-01-30T03:03:04.328Z,5.99
2023-01-30T03:04:03.798Z,4.99
2023-01-30T03:05:04.382Z,2.89
2023-01-30T03:06:04.050Z,3.68
2023-01-30T03:07:04.459Z,3.16
2023-01-30T03:08:04.005Z,3.81
2023-01-30T03:09:04.577Z,3.18
2023-01-30T03:10:04.684Z,4.05
2023-01-30T03:11:04.294Z,4.02
2023-01-30T03:12:04.700Z,3.75
2023-01-30T03:13:04.059Z,3.78
2023-01-30T03:14:04.414Z,4.41
2023-01-30T03:15:04.092Z,4.89
2023-01-30T03:16:03.690Z,3.34
2023-01-30T03:17:04.192Z,3.22
2023-01-30T03:18:03.798Z,4.5
2023-01-30T03:19:04.271Z,4.56
2023-01-30T03:20:03.852Z,3.81
2023-01-30T03:21:03.958Z,4.43
2023-01-30T03:22:03.770Z,3.25
2023-01-30T03:23:04.384Z,3.25
2023-01-30T03:24:03.991Z,3.53
2023-01-30T03:25:04.500Z,3.85
2023-01-30T03:26:04.151Z,5.42
2023-01-30T03:27:03.678Z,6.08
2023-01-30T03:28:03.888Z,3.45
2023-01-30T03:29:04.277Z,4.02
2023-01-30T03:30:03.908Z,4.23
2023-01-30T03:31:04.607Z,3.32
2023-01-30T03:32:04.326Z,4.11
2023-01-30T03:33:03.902Z,4.61
2023-01-30T03:34:04.460Z,4.51
2023-01-30T03:35:03.886Z,3.75
2023-01-30T03:36:04.296Z,4.02
2023-01-30T03:37:04.053Z,4.78
2023-01-30T03:38:04.383Z,4.22
2023-01-30T03:39:04.557Z,3.89
2023-01-30T03:40:04.451Z,3.95
2023-01-30T03:41:03.892Z,4.32
2023-01-30T03:42:04.328Z,5.07
2023-01-30T03:43:04.488Z,3.79
2023-01-30T03:44:04.061Z,3.41
2023-01-30T03:45:03.921Z,3.9
2023-01-30T03:46:03.933Z,3.54
2023-01-30T03:47:03.699Z,3.09
2023-01-30T03:48:04.199Z,3.87
2023-01-30T03:49:03.754Z,4.05
2023-01-30T03:50:04.209Z,3.45
2023-01-30T03:51:03.709Z,5.31
2023-01-30T03:52:04.131Z,5.35
2023-01-30T03:53:03.949Z,5.02
2023-01-30T03:54:03.567Z,4.81
2023-01-30T03:55:04.129Z,3.92
2023-01-30T03:56:04.861Z,4.01
2023-01-30T03:57:04.037Z,3.97
2023-01-30T03:58:03.573Z,4.26
2023-01-30T03:59:04.103Z,4.35
2023-01-30T04:00:03.831Z,5.08
2023-01-30T04:01:04.586Z,3.68
2023-01-30T04:02:04.038Z,2.44
2023-01-30T04:03:04.329Z,4.09
2023-01-30T04:04:04.244Z,6.31
2023-01-30T04:05:03.651Z,2.98
2023-01-30T04:06:04.129Z,3.5
2023-01-30T04:07:03.589Z,5.34
2023-01-30T04:08:04.016Z,5.07
2023-01-30T04:09:03.736Z,4.19
2023-01-30T04:10:04.348Z,3.79
2023-01-30T04:11:03.768Z,6.44
2023-01-30T04:12:04.310Z,5.29
2023-01-30T04:13:03.847Z,5.27
2023-01-30T04:14:04.373Z,5.27
2023-01-30T04:15:04.420Z,4.18
2023-01-30T04:16:03.758Z,2.48
2023-01-30T04:17:04.210Z,3.89
2023-01-30T04:18:03.774Z,4.78
2023-01-30T04:19:04.237Z,5.24
2023-01-30T04:20:03.591Z,3.93
2023-01-30T04:21:03.713Z,5.76
2023-01-30T04:22:04.251Z,3
2023-01-30T04:23:04.478Z,3.9
2023-01-30T04:24:04.048Z,4.32
2023-01-30T04:25:04.528Z,3.68
2023-01-30T04:26:03.968Z,2.35
2023-01-30T04:27:04.450Z,3.7
2023-01-30T04:28:03.977Z,2.81
2023-01-30T04:29:04.479Z,3.28
2023-01-30T04:30:04.150Z,3.54
2023-01-30T04:31:04.178Z,4.43
2023-01-30T04:32:04.632Z,4.58
2023-01-30T04:33:04.022Z,5.55
2023-01-30T04:34:03.695Z,3.93
2023-01-30T04:35:04.195Z,3.69
2023-01-30T04:36:03.558Z,2.74
2023-01-30T04:37:04.349Z,3.62
2023-01-30T04:38:04.213Z,4.08
2023-01-30T04:39:03.766Z,4.12
2023-01-30T04:40:04.281Z,3.7
2023-01-30T04:41:04.029Z,3.67
2023-01-30T04:42:04.608Z,4.1
2023-01-30T04:43:04.469Z,4.34
2023-01-30T04:44:03.786Z,3.28
2023-01-30T04:45:04.480Z,3.9
2023-01-30T04:46:04.463Z,3.49
2023-01-30T04:47:03.923Z,2.61
2023-01-30T04:48:03.860Z,4.7
2023-01-30T04:49:03.605Z,4.24
2023-01-30T04:50:04.316Z,2.71
2023-01-30T04:51:03.942Z,3.41
2023-01-30T04:52:04.372Z,4.29
2023-01-30T04:53:03.800Z,4.26
2023-01-30T04:54:04.396Z,4.28
2023-01-30T04:55:03.699Z,3.32
2023-01-30T04:56:04.321Z,4.09
2023-01-30T04:57:04.044Z,5.48
2023-01-30T04:58:04.575Z,3.89
2023-01-30T04:59:03.862Z,3.2
2023-01-30T05:00:04.428Z,3.6
2023-01-30T05:01:04.245Z,3.56
2023-01-30T05:02:04.046Z,5.58
2023-01-30T05:03:04.283Z,5.19
2023-01-30T05:04:03.992Z,5.19
2023-01-30T05:05:04.464Z,4.94
2023-01-30T05:06:04.037Z,5.16
2023-01-30T05:07:04.512Z,5.68
2023-01-30T05:08:03.898Z,3.82
2023-01-30T05:09:03.597Z,3.7
2023-01-30T05:10:04.217Z,4.14
2023-01-30T05:11:03.537Z,5.04
2023-01-30T05:12:04.112Z,4.13
2023-01-30T05:13:03.558Z,2.99
2023-01-30T05:14:04.243Z,2.48
2023-01-30T05:15:03.730Z,5.15
2023-01-30T05:16:03.927Z,2.91
2023-01-30T05:17:04.431Z,4.24
2023-01-30T05:18:03.871Z,4.03
2023-01-30T05:19:04.327Z,3.14
2023-01-30T05:20:03.964Z,2.75
2023-01-30T05:21:04.500Z,3.68
2023-01-30T05:22:03.906Z,4.71
2023-01-30T05:23:04.441Z,5.16
2023-01-30T05:24:04.072Z,4.15
2023-01-30T05:25:04.368Z,5.56
2023-01-30T05:26:03.979Z,5.66
2023-01-30T05:27:04.398Z,2.6
2023-01-30T05:28:04.038Z,4.23
2023-01-30T05:29:04.263Z,4.98
2023-01-30T05:30:04.033Z,3.26
2023-01-30T05:31:04.260Z,4.81
2023-01-30T05:32:03.647Z,4.29
2023-01-30T05:33:04.264Z,4.93
2023-01-30T05:34:03.942Z,4.18
2023-01-30T05:35:04.250Z,4.41
2023-01-30T05:36:03.842Z,3.99
2023-01-30T05:37:04.355Z,3.69
2023-01-30T05:38:03.800Z,3.46
2023-01-30T05:39:04.383Z,2.78
2023-01-30T05:40:04.101Z,3.69
2023-01-30T05:41:04.564Z,4.55
2023-01-30T05:42:03.840Z,4.28
2023-01-30T05:43:03.485Z,3.28
2023-01-30T05:44:04.044Z,4.42
2023-01-30T05:45:03.697Z,3.71
2023-01-30T05:46:04.080Z,3.95
2023-01-30T05:47:03.468Z,3.14
2023-01-30T05:48:04.100Z,2.49
2023-01-30T05:49:03.558Z,4.63
2023-01-30T05:50:04.153Z,5.14
2023-01-30T05:51:04.695Z,2.89
2023-01-30T05:52:04.383Z,4.76
2023-01-30T05:53:03.892Z,3.79
2023-01-30T05:54:03.605Z,4.17
2023-01-30T05:55:03.959Z,4.17
2023-01-30T05:56:03.675Z,4.49
2023-01-30T05:57:04.189Z,3.42
2023-01-30T05:58:03.663Z,3.85
2023-01-30T05:59:04.151Z,4.24
2023-01-30T06:00:04.581Z,5.26
2023-01-30T06:01:04.260Z,6.51
2023-01-30T06:02:03.614Z,3.95
2023-01-30T06:03:03.197Z,4.66
2023-01-30T06:04:03.678Z,3.72
2023-01-30T06:05:04.062Z,4.65
2023-01-30T06:06:03.870Z,4.74
2023-01-30T06:07:04.503Z,5.96
2023-01-30T06:08:03.867Z,4.39
2023-01-30T06:09:04.464Z,5.17
2023-01-30T06:10:03.933Z,5.71
2023-01-30T06:11:04.474Z,5.48
2023-01-30T06:12:03.996Z,4.91
2023-01-30T06:13:04.390Z,5.99
2023-01-30T06:14:03.779Z,4.81
2023-01-30T06:15:04.411Z,4.38
2023-01-30T06:16:03.829Z,4.09
2023-01-30T06:17:04.179Z,4.09
2023-01-30T06:18:03.683Z,3.92
2023-01-30T06:19:04.359Z,3.18
2023-01-30T06:20:03.887Z,4.25
2023-01-30T06:21:04.285Z,5.41
2023-01-30T06:22:03.852Z,4.39
2023-01-30T06:23:04.282Z,2.95
2023-01-30T06:24:04.064Z,4.9
2023-01-30T06:25:04.311Z,4.02
2023-01-30T06:26:09.030Z,4.35
2023-01-30T06:27:04.339Z,3.49
2023-01-30T06:28:03.861Z,3.14
2023-01-30T06:29:04.445Z,4.26
2023-01-30T06:30:03.887Z,3.64
2023-01-30T06:31:04.688Z,5.25
2023-01-30T06:32:03.844Z,5.17
2023-01-30T06:33:04.384Z,3.13
2023-01-30T06:34:03.888Z,4.14
2023-01-30T06:35:04.335Z,4.69
2023-01-30T06:36:03.888Z,3.66
2023-01-30T06:37:04.423Z,4.23
2023-01-30T06:38:03.770Z,4.44
2023-01-30T06:39:04.482Z,4.31
2023-01-30T06:40:03.997Z,4.45
2023-01-30T06:41:04.375Z,3.96
2023-01-30T06:42:03.881Z,4.59
2023-01-30T06:43:04.310Z,3.99
2023-01-30T06:44:03.724Z,3.88
2023-01-30T06:45:04.346Z,3.88
2023-01-30T06:46:04.044Z,3.02
2023-01-30T06:47:04.484Z,3.4
2023-01-30T06:48:03.904Z,5.9
2023-01-30T06:49:04.449Z,3.51
2023-01-30T06:50:03.853Z,3.15
2023-01-30T06:51:03.561Z,3.97
2023-01-30T06:52:04.104Z,4.47
2023-01-30T06:53:04.698Z,4.23
2023-01-30T06:54:04.098Z,5.18
2023-01-30T06:55:03.716Z,3.61
2023-01-30T06:56:04.225Z,4.65
2023-01-30T06:57:03.652Z,3.4
2023-01-30T06:58:04.206Z,3.59
2023-01-30T06:59:03.909Z,5.95
2023-01-30T07:00:04.283Z,2.31
2023-01-30T07:01:04.234Z,5.64
2023-01-30T07:02:03.846Z,3.39
2023-01-30T07:03:04.316Z,5.67
2023-01-30T07:04:03.835Z,3.65
2023-01-30T07:05:04.219Z,3.91
2023-01-30T07:06:03.704Z,4.38
2023-01-30T07:07:04.979Z,4.12
2023-01-30T07:08:03.895Z,3.94
2023-01-30T07:09:04.375Z,4.14
2023-01-30T07:10:10.695Z,4.02
2023-01-30T07:11:04.323Z,4.51
2023-01-30T07:12:03.844Z,4.2
2023-01-30T07:13:04.302Z,3.34
2023-01-30T07:14:05.700Z,4
2023-01-30T07:15:04.481Z,3.02
2023-01-30T07:16:03.792Z,3.53
2023-01-30T07:17:04.410Z,4.01
2023-01-30T07:18:03.691Z,4.6
2023-01-30T07:19:04.264Z,3.78
2023-01-30T07:20:03.896Z,3.87
2023-01-30T07:21:04.460Z,6.74
2023-01-30T07:22:05.485Z,3.05
2023-01-30T07:23:04.204Z,3.25
2023-01-30T07:24:04.017Z,4.36
2023-01-30T07:25:04.454Z,4.41
2023-01-30T07:26:03.782Z,2.63
2023-01-30T07:27:04.142Z,2.85
2023-01-30T07:28:03.697Z,3.53
2023-01-30T07:29:04.248Z,5.82
2023-01-30T07:30:03.887Z,6.15
2023-01-30T07:31:03.882Z,2.63
2023-01-30T07:32:04.141Z,3.37
2023-01-30T07:33:03.675Z,3.42
2023-01-30T07:34:04.251Z,2.99
2023-01-30T07:35:06.938Z,2.99
2023-01-30T07:36:04.233Z,4.12
2023-01-30T07:37:03.899Z,4.48
2023-01-30T07:38:04.318Z,4.44
2023-01-30T07:39:03.901Z,3.48
2023-01-30T07:40:04.680Z,2.77
2023-01-30T07:41:04.158Z,3.41
2023-01-30T07:42:03.715Z,3.58
2023-01-30T07:43:04.290Z,2.02
2023-01-30T07:44:03.742Z,3.94
2023-01-30T07:45:04.175Z,4.19
2023-01-30T07:46:03.894Z,3.24
2023-01-30T07:47:04.575Z,5.55
2023-01-30T07:48:03.901Z,4.78
2023-01-30T07:49:04.578Z,3.62
2023-01-30T07:50:04.185Z,3.94
2023-01-30T07:51:03.607Z,3.19
2023-01-30T07:52:04.269Z,2.9
2023-01-30T07:53:03.576Z,4.59
2023-01-30T07:54:04.105Z,3.19
2023-01-30T07:55:04.021Z,3.76
2023-01-30T07:56:04.332Z,3.04
2023-01-30T07:57:03.751Z,3.55
2023-01-30T07:58:04.217Z,2.31
2023-01-30T07:59:03.643Z,3.72
2023-01-30T08:00:04.324Z,3.15
2023-01-30T08:01:04.228Z,2.68
2023-01-30T08:02:03.734Z,1.82
2023-01-30T08:03:04.296Z,1.56
2023-01-30T08:04:03.864Z,1.34
2023-01-30T08:05:06.705Z,3.04
2023-01-30T08:06:03.952Z,2.01
2023-01-30T08:07:03.462Z,1.6
2023-01-30T08:08:04.030Z,3.42
2023-01-30T08:09:04.665Z,1.61
2023-01-30T08:10:04.198Z,1.32
2023-01-30T08:11:03.676Z,1.16
2023-01-30T08:12:04.166Z,1.84
2023-01-30T08:13:03.947Z,2.46
2023-01-30T08:14:04.530Z,0.88
2023-01-30T08:15:03.862Z,1.88
2023-01-30T08:16:03.671Z,5.31
2023-01-30T08:17:04.044Z,4.41
2023-01-30T08:18:03.631Z,1.64
2023-01-30T08:19:04.038Z,1.89
2023-01-30T08:20:03.601Z,2.87
2023-01-30T08:21:04.276Z,1.09
2023-01-30T08:22:03.947Z,1.71
2023-01-30T08:23:04.446Z,1.66
2023-01-30T08:24:03.856Z,2.12
2023-01-30T08:25:04.327Z,1.05
2023-01-30T08:26:04.008Z,1.05
2023-01-30T08:27:04.593Z,1.74
2023-01-30T08:28:04.009Z,2.66
2023-01-30T08:29:04.380Z,1.38
2023-01-30T08:30:04.052Z,3.04
2023-01-30T08:31:04.208Z,3.4
2023-01-30T08:32:04.551Z,2.78
2023-01-30T08:33:04.591Z,3.02
2023-01-30T08:34:04.022Z,2.48
2023-01-30T08:35:04.390Z,2.97
2023-01-30T08:36:04.261Z,1.58
2023-01-30T08:37:04.437Z,2.14
2023-01-30T08:38:03.900Z,2.85
2023-01-30T08:39:04.248Z,2.16
2023-01-30T08:40:03.887Z,2.56
2023-01-30T08:41:04.322Z,2.11
2023-01-30T08:42:04.271Z,2.27
2023-01-30T08:43:03.743Z,3.02
2023-01-30T08:44:04.125Z,2.12
2023-01-30T08:45:03.644Z,2.52
2023-01-30T08:46:04.263Z,2.17
2023-01-30T08:47:04.711Z,2.32
2023-01-30T08:48:04.274Z,1.82
2023-01-30T08:49:03.806Z,2.41
2023-01-30T08:50:04.232Z,2.19
2023-01-30T08:51:03.712Z,1.73
2023-01-30T08:52:04.453Z,3.21
2023-01-30T08:53:03.895Z,1.58
2023-01-30T08:54:04.527Z,2.61
2023-01-30T08:55:04.067Z,2.01
2023-01-30T08:56:04.608Z,2.89
2023-01-30T08:57:04.142Z,1.18
2023-01-30T08:58:03.585Z,1.39
2023-01-30T08:59:04.089Z,1.14
2023-01-30T09:00:03.642Z,1.6
2023-01-30T09:01:04.186Z,1.74
2023-01-30T09:02:03.727Z,3.01
2023-01-30T09:03:04.325Z,1.58
2023-01-30T09:04:03.844Z,2.46
2023-01-30T09:05:04.318Z,2.29
2023-01-30T09:06:03.774Z,2.03
2023-01-30T09:07:04.153Z,3.58
2023-01-30T09:08:03.815Z,1.88
2023-01-30T09:09:04.427Z,1.73
2023-01-30T09:10:03.965Z,1.76
2023-01-30T09:11:04.482Z,3.68
2023-01-30T09:12:04.188Z,1.72
2023-01-30T09:13:03.655Z,1.68
2023-01-30T09:14:04.309Z,2.58
2023-01-30T09:15:03.761Z,2.73
2023-01-30T09:16:04.166Z,2.79
2023-01-30T09:17:04.592Z,2.79
2023-01-30T09:18:03.966Z,3.25
2023-01-30T09:19:04.621Z,2.68
2023-01-30T09:20:04.207Z,1.92
2023-01-30T09:21:04.148Z,2.85
2023-01-30T09:22:03.571Z,2.98
2023-01-30T09:23:04.253Z,2.38
2023-01-30T09:24:03.810Z,1.42
2023-01-30T09:25:04.534Z,1.29
2023-01-30T09:26:03.812Z,2.38
2023-01-30T09:27:04.355Z,3.64
2023-01-30T09:28:04.003Z,1.64
2023-01-30T09:29:04.473Z,1.85
2023-01-30T09:30:04.185Z,1.42
2023-01-30T09:31:04.018Z,4.21
2023-01-30T09:32:04.418Z,1.92
2023-01-30T09:33:04.532Z,2.41
2023-01-30T09:34:03.764Z,4.67
2023-01-30T09:35:04.364Z,2.36
2023-01-30T09:36:04.006Z,2.31
2023-01-30T09:37:06.924Z,1.34
2023-01-30T09:38:03.993Z,2.44
2023-01-30T09:39:04.490Z,2.28
2023-01-30T09:40:03.956Z,2.39
2023-01-30T09:41:03.465Z,1.64
2023-01-30T09:42:04.035Z,1.49
2023-01-30T09:43:03.670Z,2.87
2023-01-30T09:44:04.391Z,4.28
2023-01-30T09:45:03.811Z,2.15
2023-01-30T09:46:04.539Z,2.35
2023-01-30T09:47:04.007Z,2.84
2023-01-30T09:48:04.878Z,2.06
2023-01-30T09:49:04.146Z,1.86
2023-01-30T09:50:04.226Z,2.89
2023-01-30T09:51:04.570Z,1.74
2023-01-30T09:52:03.802Z,2.08
2023-01-30T09:53:04.082Z,2.72
2023-01-30T09:54:03.739Z,2.22
2023-01-30T09:55:04.133Z,1.83
2023-01-30T09:56:03.510Z,1.67
2023-01-30T09:57:03.982Z,1.84
2023-01-30T09:58:03.510Z,1.34
2023-01-30T09:59:03.860Z,1.62
2023-01-30T10:00:04.379Z,2.43
2023-01-30T10:01:03.806Z,1.8
2023-01-30T10:02:04.281Z,1.44
2023-01-30T10:03:04.166Z,2.47
2023-01-30T10:04:03.374Z,1.88
2023-01-30T10:05:04.824Z,1.49
2023-01-30T10:06:03.671Z,2.38
2023-01-30T10:07:04.073Z,2.62
2023-01-30T10:08:04.571Z,2.62
2023-01-30T10:09:03.963Z,1.71
2023-01-30T10:10:04.559Z,1.71
2023-01-30T10:11:12.404Z,1.36
2023-01-30T10:12:03.545Z,2.14
2023-01-30T10:13:04.199Z,2.14
2023-01-30T10:14:03.547Z,2.33
2023-01-30T10:15:04.039Z,1.68
2023-01-30T10:16:03.811Z,2.3
2023-01-30T10:17:04.114Z,1.58
2023-01-30T10:18:03.851Z,2.45
2023-01-30T10:19:04.442Z,1.58
2023-01-30T10:20:03.863Z,2.92
2023-01-30T10:21:04.407Z,1.8
2023-01-30T10:22:03.834Z,2.18
2023-01-30T10:23:04.471Z,1.55
2023-01-30T10:24:04.051Z,1.8
2023-01-30T10:25:04.490Z,2.15
2023-01-30T10:26:03.978Z,2.58
2023-01-30T10:27:06.777Z,1.52
2023-01-30T10:28:04.273Z,1.86
2023-01-30T10:29:10.866Z,2.02
2023-01-30T10:30:04.297Z,2.09
2023-01-30T10:31:04.095Z,2.09
2023-01-30T10:32:04.375Z,2.22
2023-01-30T10:33:03.837Z,1.6
2023-01-30T10:34:04.450Z,1.93
2023-01-30T10:35:03.839Z,1.99
2023-01-30T10:36:04.308Z,2.2
2023-01-30T10:37:03.753Z,1.35
2023-01-30T10:38:04.456Z,1.51
2023-01-30T10:39:03.924Z,1.25
2023-01-30T10:40:04.639Z,1.39
2023-01-30T10:41:04.226Z,2.53
2023-01-30T10:42:03.656Z,1.07
2023-01-30T10:43:04.115Z,1.24
2023-01-30T10:44:03.609Z,2.21
2023-01-30T10:45:04.513Z,2.32
2023-01-30T10:46:04.153Z,2.38
2023-01-30T10:47:03.733Z,2.67
2023-01-30T10:48:06.964Z,2.19
2023-01-30T10:49:03.536Z,1.08
2023-01-30T10:50:04.894Z,2.05
2023-01-30T10:51:03.427Z,1.35
2023-01-30T10:52:04.088Z,1.32
2023-01-30T10:53:04.735Z,1.55
2023-01-30T10:54:04.169Z,1.12
2023-01-30T10:55:04.595Z,2.14
2023-01-30T10:56:04.013Z,1.38
2023-01-30T10:57:03.638Z,3.45
2023-01-30T10:58:04.282Z,1.85
2023-01-30T10:59:03.670Z,1.85
2023-01-30T11:00:04.406Z,1.13
2023-01-30T11:01:03.939Z,1.13
2023-01-30T11:02:04.575Z,1.78
2023-01-30T11:03:04.093Z,2.08
2023-01-30T11:04:03.634Z,2.25
2023-01-30T11:05:04.146Z,1.95
2023-01-30T11:06:03.607Z,2.15
2023-01-30T11:07:04.201Z,1.18
2023-01-30T11:08:03.818Z,1.38
2023-01-30T11:09:04.269Z,0.91
2023-01-30T11:10:03.896Z,1.51
2023-01-30T11:11:04.459Z,2.28
2023-01-30T11:12:04.094Z,1.74
2023-01-30T11:13:04.644Z,2.08
2023-01-30T11:14:04.084Z,1.26
2023-01-30T11:15:04.708Z,1.31
2023-01-30T11:16:04.543Z,1.62
2023-01-30T11:17:03.978Z,1.78
2023-01-30T11:19:23.240Z,1.79
2023-01-30T11:20:03.678Z,1.82
2023-01-30T11:21:04.079Z,1.56
2023-01-30T11:22:03.508Z,1.79
2023-01-30T11:23:04.015Z,1.01
2023-01-30T11:24:03.638Z,1.58
2023-01-30T11:25:04.105Z,1.34
2023-01-30T11:26:13.410Z,1.4
2023-01-30T11:27:04.226Z,1.44
2023-01-30T11:28:03.819Z,1.35
2023-01-30T11:29:04.124Z,1.29
2023-01-30T11:30:03.638Z,2.06
2023-01-30T11:31:04.167Z,1.32
2023-01-30T11:32:03.791Z,1.32
2023-01-30T11:33:04.117Z,1.27
2023-01-30T11:34:03.830Z,1.8
2023-01-30T11:35:04.230Z,1.99
2023-01-30T11:36:06.464Z,1.15
2023-01-30T11:37:04.063Z,1.74
2023-01-30T11:38:03.489Z,2.94
2023-01-30T11:39:04.161Z,1.22
2023-01-30T11:40:04.425Z,0.95
2023-01-30T11:41:03.974Z,1.61
2023-01-30T11:42:04.649Z,1.97
2023-01-30T11:43:04.125Z,1.28
2023-01-30T11:44:03.666Z,2.02
2023-01-30T11:45:19.339Z,1.44
2023-01-30T11:46:04.014Z,1.02
2023-01-30T11:47:03.980Z,0.67
2023-01-30T11:48:07.855Z,1.06
2023-01-30T11:50:21.898Z,0.92
2023-01-30T11:50:32.136Z,0.92
2023-01-30T11:52:04.050Z,1.54
2023-01-30T11:53:05.151Z,1.58
2023-01-30T11:54:04.109Z,1.41
2023-01-30T11:55:04.470Z,1.29
2023-01-30T11:56:11.659Z,1.86
2023-01-30T11:57:03.842Z,1.18
2023-01-30T11:58:03.996Z,1.06
2023-01-30T11:59:03.695Z,1.87
2023-01-30T12:00:04.243Z,1.14
2023-01-30T12:01:04.268Z,1.01
2023-01-30T12:02:03.921Z,1.57
2023-01-30T12:03:04.364Z,1.23
2023-01-30T12:04:03.824Z,1.31
2023-01-30T12:05:04.306Z,1.31
2023-01-30T12:06:03.902Z,1.31
2023-01-30T12:07:04.170Z,1.45
2023-01-30T12:08:03.661Z,1.39
2023-01-30T12:09:04.452Z,0.99
2023-01-30T12:10:03.863Z,1.43
2023-01-30T12:11:04.463Z,0.82
2023-01-30T12:12:03.904Z,1.72
2023-01-30T12:13:04.391Z,0.92
2023-01-30T12:14:03.934Z,1.04
2023-01-30T12:15:04.487Z,1.16
2023-01-30T12:16:04.191Z,1.38
2023-01-30T12:17:04.590Z,1.28
2023-01-30T12:18:03.897Z,1.01
2023-01-30T12:19:04.518Z,1.74
2023-01-30T12:20:03.931Z,1.16
2023-01-30T12:21:04.611Z,1.14
2023-01-30T12:22:04.186Z,1.99
2023-01-30T12:23:03.643Z,1.92
2023-01-30T12:24:04.134Z,1.74
2023-01-30T12:25:03.902Z,0.76
2023-01-30T12:26:04.399Z,1.24
2023-01-30T12:27:03.919Z,1.58
2023-01-30T12:28:04.296Z,1.09
2023-01-30T12:29:04.034Z,0.96
2023-01-30T12:30:04.536Z,1.35
2023-01-30T12:31:03.648Z,1.07
2023-01-30T12:32:04.463Z,1.69
2023-01-30T12:33:03.930Z,1.34
2023-01-30T12:34:04.511Z,1.17
2023-01-30T12:35:03.715Z,0.91
2023-01-30T12:36:04.342Z,0.79
2023-01-30T12:37:03.973Z,1.56
2023-01-30T12:38:04.366Z,1.51
2023-01-30T12:39:04.091Z,1.86
2023-01-30T12:40:03.663Z,1.07
2023-01-30T12:41:04.215Z,1.07
2023-01-30T12:42:03.669Z,0.9
2023-01-30T12:43:04.192Z,1.54
2023-01-30T12:44:03.628Z,1.54
2023-01-30T12:45:04.228Z,1.19
2023-01-30T12:46:04.055Z,0.89
2023-01-30T12:47:04.336Z,1.05
2023-01-30T12:48:03.873Z,1.17
2023-01-30T12:49:13.134Z,1.52
2023-01-30T12:50:03.737Z,1.6
2023-01-30T12:51:04.575Z,1
2023-01-30T12:52:04.071Z,1.28
2023-01-30T12:53:03.783Z,1.19
2023-01-30T12:54:04.268Z,1.06
2023-01-30T12:55:03.650Z,1.22
2023-01-30T12:56:04.232Z,1.65
2023-01-30T12:57:03.727Z,2.55
2023-01-30T12:58:04.247Z,1.4
2023-01-30T12:59:03.706Z,1.17
2023-01-30T13:00:04.305Z,1.45
2023-01-30T13:01:04.427Z,1.31
2023-01-30T13:02:04.004Z,1.82
2023-01-30T13:03:04.543Z,1.24
2023-01-30T13:04:04.112Z,1.08
2023-01-30T13:05:06.913Z,1.76
2023-01-30T13:06:04.026Z,1.21
2023-01-30T13:07:03.667Z,2.22
2023-01-30T13:08:04.127Z,1.51
2023-01-30T13:09:03.670Z,2.16
2023-01-30T13:10:03.974Z,2.66
2023-01-30T13:11:03.662Z,1.37
2023-01-30T13:12:04.342Z,2.5
2023-01-30T13:13:03.743Z,1.68
2023-01-30T13:14:04.233Z,0.89
2023-01-30T13:15:03.801Z,1.09
2023-01-30T13:16:04.509Z,1.56
2023-01-30T13:17:03.839Z,0.92
2023-01-30T13:18:04.358Z,0.83
2023-01-30T13:19:03.775Z,1.03
2023-01-30T13:20:04.412Z,1.64
2023-01-30T13:21:03.867Z,0.85
2023-01-30T13:22:03.619Z,1.85